Aérodrome :
LOGIN :

S'inscrire | Disclaimer

   EN    FR    IT 

 










Légende :    VFR   VFR Marginal   IFR   IFR Intensif   IFR Très Intensif
Visi : 
Plafond : 
>= 8 km
>= 3000ft
5 à 8 km
1000 à 3000 ft
1500m à 5 km
500 à 1000 ft
800 à 1500m
200 à 500 ft
< 800m
< 200 ft
Symboles :   Orages  Brouillard  Fortes neiges  Fortes précipitations  Vent > 20 kt
SIGMETs :   Divers  Orages  Givrage  Turbulence  Onde Orograph.  Cendres Volcan.







- Altitude de l'aérodrome : 529 ft
- Code IATA : CHR
- Voir les cartes d'approche


LFLX - Chateauroux

DERNIER METAR :
  • 250430Z AUTO 25006KT 9999 BKN013 08/07 Q1018 TEMPO BKN006

METARs EXPIRÉS :
  • 250400Z AUTO 26006KT CAVOK 08/07 Q1017 TEMPO BKN006
  • 250330Z AUTO 27008KT CAVOK 09/08 Q1017 TEMPO BKN006
  • 250300Z AUTO 27009KT CAVOK 10/09 Q1017 TEMPO BKN006
  • 250230Z AUTO 26007KT 9999 FEW006 10/09 Q1016 TEMPO BKN006
  • 250200Z AUTO 27009KT CAVOK 11/10 Q1016 NOSIG

TAF TAF LFLX
Valide du 25 à 00h jusqu'au 26 à 06h UTC


242300Z 2500/2606 26006KT CAVOK
BECMG 2503/2505 26010KT BKN016
TEMPO 2504/2509 BKN006
BECMG 2512/2515 BKN040
BECMG 2516/2518 CAVOK
BECMG 2601/2603 26005KT
Pas de NOTAMs connus pour ce terrain.



MET'MAP, la Météo Aéronautique d'un coup d'oeil ! - Copyright ORBIFLY Décembre 2007 - Disclaimer

ORBIFLY MET'MAP TEAM :

Programmation & Développement : Alexandra Zaïnal
Conception & Développement : Baudouin d'Aumeries
Co-Programmation & Développement : Marc-Olivier Méhu
Soutien technique & logistique : Manuel Goepfert

Contact : metmap@orbifly.com




SOURCES & CREDITS :

   NOAA